Time;durP1;ratioP1;P1;durP2;ratioP2;P2;SDS_P1;SDS_P2;PMS_P1;PMS_P2;Temp;Humidity;BMP_temperature;BMP_pressure;BME280_temperature;BME280_humidity;BME280_pressure;Samples;Min_cycle;Max_cycle;Signal;HPM_P1;HPM_P2
2022/06/26 00:01:50;;;;;;;;;;;;;;;22.20;60.46;100190.72;4999951;28;8164;-76
2022/06/26 00:04:16;;;;;;;;;;;;;;;22.17;60.64;100189.88;5000195;28;6965;-76
2022/06/26 00:06:42;;;;;;;;;;;;;;;22.14;60.71;100182.06;4963863;28;8447;-76
2022/06/26 00:09:07;;;;;;;;;;;;;;;22.12;61.08;100179.44;4964812;28;6962;-76
2022/06/26 00:11:33;;;;;;;;;;;;;;;22.11;60.88;100177.72;4987829;28;6932;-76
2022/06/26 00:13:59;;;;;;;;;;;;;;;22.09;60.80;100178.59;4963037;28;6969;-77
2022/06/26 00:16:25;;;;;;;;;;;;;;;22.06;61.02;100184.66;5000092;28;7849;-76
2022/06/26 00:18:51;;;;;;;;;;;;;;;22.04;61.14;100176.88;5001400;28;6857;-76
2022/06/26 00:21:16;;;;;;;;;;;;;;;22.05;61.12;100176.00;4977643;28;6992;-76
2022/06/26 00:23:42;;;;;;;;;;;;;;;22.05;61.13;100168.16;5000189;28;6783;-76
2022/06/26 00:26:08;;;;;;;;;;;;;;;22.05;60.79;100167.28;4985824;28;7236;-76
2022/06/26 00:28:34;;;;;;;;;;;;;;;22.05;60.87;100172.50;5000343;28;7187;-76
2022/06/26 00:31:01;;;;;;;;;;;;;;;22.02;60.69;100182.97;4998983;28;7757;-76
2022/06/26 00:33:27;;;;;;;;;;;;;;;21.99;61.02;100182.97;4962713;28;7277;-76
2022/06/26 00:35:53;;;;;;;;;;;;;;;21.95;61.32;100182.13;4967289;28;8521;-76
2022/06/26 00:38:19;;;;;;;;;;;;;;;21.95;61.26;100194.28;5003276;28;6987;-77
2022/06/26 00:40:45;;;;;;;;;;;;;;;21.94;61.15;100188.19;4993715;28;6940;-76
2022/06/26 00:43:11;;;;;;;;;;;;;;;21.94;61.43;100189.94;4961848;28;7251;-76
2022/06/26 00:45:36;;;;;;;;;;;;;;;21.93;61.41;100183.88;4961820;28;6980;-76
2022/06/26 00:48:02;;;;;;;;;;;;;;;21.94;61.35;100196.03;4997306;28;6788;-76
2022/06/26 00:50:28;;;;;;;;;;;;;;;21.93;61.28;100196.91;4981052;28;6841;-76
2022/06/26 00:52:56;;;;;;;;;;;;;;;21.92;61.27;100198.63;4962325;28;7061;-76
2022/06/26 00:55:23;;;;;;;;;;;;;;;21.90;60.80;100197.78;4981360;28;8453;-76
2022/06/26 00:57:50;;;;;;;;;;;;;;;21.90;60.83;100194.28;5000595;28;6958;-76
2022/06/26 01:00:20;;;;;;;;;;;;;;;21.84;61.20;100197.78;4957516;28;6808;-76
2022/06/26 01:02:46;;;;;;;;;;;;;;;21.80;61.66;100203.00;4968423;28;7157;-77
2022/06/26 01:05:12;;;;;;;;;;;;;;;21.78;61.75;100200.41;4970255;28;7140;-77
2022/06/26 01:07:38;;;;;;;;;;;;;;;21.78;61.95;100206.47;4993307;28;8801;-76
2022/06/26 01:10:05;;;;;;;;;;;;;;;21.77;61.92;100212.56;4978983;28;7407;-77
2022/06/26 01:12:31;;;;;;;;;;;;;;;21.80;62.34;100213.44;4990142;28;6971;-76
2022/06/26 01:14:59;;;;;;;;;;;;;;;21.83;62.29;100221.28;4982433;28;7133;-76
2022/06/26 01:17:24;;;;;;;;;;;;;;;21.85;62.43;100228.19;4961981;28;7193;-77
2022/06/26 01:19:50;;;;;;;;;;;;;;;21.86;62.49;100235.16;4999400;28;6768;-77
2022/06/26 01:22:16;;;;;;;;;;;;;;;21.90;62.53;100231.69;4980877;28;7092;-76
2022/06/26 01:24:41;;;;;;;;;;;;;;;21.91;62.58;100230.81;4963593;28;7727;-76
2022/06/26 01:27:07;;;;;;;;;;;;;;;21.96;62.64;100235.13;4980781;28;6972;-76
2022/06/26 01:29:33;;;;;;;;;;;;;;;21.99;62.92;100237.78;4985840;28;6978;-77
2022/06/26 01:31:58;;;;;;;;;;;;;;;22.03;62.71;100242.09;4977848;28;8752;-77
2022/06/26 01:34:25;;;;;;;;;;;;;;;22.06;62.53;100247.28;4965170;28;7476;-77
2022/06/26 01:36:50;;;;;;;;;;;;;;;22.09;62.17;100249.91;4959291;28;6996;-76
2022/06/26 01:39:19;;;;;;;;;;;;;;;22.11;62.37;100248.16;4996440;28;7012;-76
2022/06/26 01:41:47;;;;;;;;;;;;;;;22.13;62.47;100251.63;4998324;28;6986;-76
2022/06/26 01:44:13;;;;;;;;;;;;;;;22.17;62.20;100248.16;4984060;28;8545;-77
2022/06/26 01:46:39;;;;;;;;;;;;;;;22.20;62.35;100247.25;4996762;28;8556;-76
2022/06/26 01:49:06;;;;;;;;;;;;;;;22.23;62.19;100244.66;4976966;28;8425;-76
2022/06/26 01:51:31;;;;;;;;;;;;;;;22.23;61.86;100249.00;4962921;28;9642;-77
2022/06/26 01:53:57;;;;;;;;;;;;;;;22.20;61.85;100250.75;4979406;28;6971;-77
2022/06/26 01:56:22;;;;;;;;;;;;;;;22.15;61.77;100252.50;4959501;28;7315;-76
2022/06/26 01:58:48;;;;;;;;;;;;;;;22.12;61.89;100252.50;4977208;28;7251;-76
2022/06/26 02:01:14;;;;;;;;;;;;;;;22.06;61.83;100250.78;4964696;28;7203;-76
2022/06/26 02:03:40;;;;;;;;;;;;;;;22.02;62.15;100237.75;4968078;28;6791;-77
2022/06/26 02:06:05;;;;;;;;;;;;;;;21.98;61.86;100236.03;4999255;28;7219;-76
2022/06/26 02:08:31;;;;;;;;;;;;;;;21.95;61.92;100231.69;4996740;28;6796;-76
2022/06/26 02:13:43;;;;;;;;;;;;;;;21.88;62.04;100240.38;4967195;28;6804;-76
2022/06/26 02:16:20;;;;;;;;;;;;;;;21.88;62.18;100230.81;4978773;28;7005;-76
2022/06/26 02:18:53;;;;;;;;;;;;;;;21.91;61.98;100232.53;4949795;28;7259;-76
2022/06/26 02:21:23;;;;;;;;;;;;;;;21.91;62.24;100236.03;4964750;28;7422;-76
2022/06/26 02:23:52;;;;;;;;;;;;;;;21.94;61.93;100253.44;4960488;28;6951;-76
2022/06/26 02:26:20;;;;;;;;;;;;;;;21.96;61.99;100254.28;4997946;28;6788;-76
2022/06/26 02:28:48;;;;;;;;;;;;;;;21.97;61.91;100253.41;4965882;28;7281;-79
2022/06/26 02:31:14;;;;;;;;;;;;;;;21.99;62.14;100250.81;4978600;28;7295;-76
2022/06/26 02:33:40;;;;;;;;;;;;;;;21.99;61.67;100256.03;4978666;28;6984;-76
2022/06/26 02:36:08;;;;;;;;;;;;;;;22.00;61.80;100258.63;4970943;28;6941;-76
2022/06/26 02:38:35;;;;;;;;;;;;;;;21.99;61.67;100254.28;4969278;28;7056;-76
2022/06/26 02:41:02;;;;;;;;;;;;;;;21.99;61.59;100258.63;4964023;28;6792;-76
2022/06/26 02:43:28;;;;;;;;;;;;;;;21.96;61.17;100267.34;4965843;28;7235;-76
2022/06/26 02:45:55;;;;;;;;;;;;;;;21.93;61.21;100269.97;4984532;28;7026;-76
2022/06/26 02:48:21;;;;;;;;;;;;;;;21.87;60.71;100278.63;4984732;28;6970;-76
2022/06/26 02:50:48;;;;;;;;;;;;;;;21.83;60.95;100283.88;5000957;28;7224;-76
2022/06/26 02:53:15;;;;;;;;;;;;;;;21.75;60.45;100289.97;4971393;28;6838;-76
2022/06/26 02:55:41;;;;;;;;;;;;;;;21.71;60.27;100295.16;5000957;28;7265;-76
2022/06/26 02:58:06;;;;;;;;;;;;;;;21.65;60.15;100296.88;4957047;28;7061;-76
2022/06/26 03:00:32;;;;;;;;;;;;;;;21.62;60.59;100294.25;4968739;28;7209;-76
2022/06/26 03:03:01;;;;;;;;;;;;;;;21.57;60.18;100295.97;4973151;28;8713;-76
2022/06/26 03:05:29;;;;;;;;;;;;;;;21.55;60.57;100309.91;4971349;28;6780;-76
2022/06/26 03:07:56;;;;;;;;;;;;;;;21.53;60.32;100306.41;4971922;28;8525;-76
2022/06/26 03:10:23;;;;;;;;;;;;;;;21.48;60.00;100302.06;4969575;28;6856;-76
2022/06/26 03:12:49;;;;;;;;;;;;;;;21.39;59.91;100295.97;4965062;28;6979;-76
2022/06/26 03:15:18;;;;;;;;;;;;;;;21.31;60.00;100294.22;5000343;28;6866;-76
2022/06/26 03:17:44;;;;;;;;;;;;;;;21.25;59.89;100303.78;4966069;28;6995;-76
2022/06/26 03:20:16;;;;;;;;;;;;;;;21.18;59.94;100316.78;4952661;28;8422;-76
2022/06/26 03:22:43;;;;;;;;;;;;;;;21.10;59.93;100321.09;4965571;28;6876;-76
2022/06/26 03:25:10;;;;;;;;;;;;;;;21.02;59.63;100326.28;4962629;28;8084;-76
2022/06/26 03:27:38;;;;;;;;;;;;;;;20.94;59.76;100341.00;4993687;28;6999;-76
2022/06/26 03:30:07;;;;;;;;;;;;;;;20.85;59.84;100341.81;4968505;28;7239;-76
2022/06/26 03:32:33;;;;;;;;;;;;;;;20.79;60.17;100336.56;4967194;28;7216;-76
2022/06/26 03:34:59;;;;;;;;;;;;;;;20.73;59.70;100331.31;5001652;28;6804;-76
2022/06/26 03:37:25;;;;;;;;;;;;;;;20.68;59.85;100326.09;4995220;28;6971;-76
2022/06/26 03:39:50;;;;;;;;;;;;;;;20.64;60.29;100340.81;4991878;28;7605;-76
2022/06/26 03:42:16;;;;;;;;;;;;;;;20.62;60.14;100352.97;4983367;28;7115;-76
2022/06/26 03:44:42;;;;;;;;;;;;;;;20.59;59.98;100359.88;4981277;28;7203;-76
2022/06/26 03:47:07;;;;;;;;;;;;;;;20.57;60.51;100352.09;4967858;28;7010;-76
2022/06/26 03:49:33;;;;;;;;;;;;;;;20.55;60.31;100351.19;4990395;28;6827;-76
2022/06/26 03:51:59;;;;;;;;;;;;;;;20.53;60.44;100339.91;4991800;28;6788;-77
2022/06/26 03:54:25;;;;;;;;;;;;;;;20.52;60.73;100335.56;4985916;28;8453;-77
2022/06/26 03:56:51;;;;;;;;;;;;;;;20.51;60.68;100339.88;4966266;28;7374;-77
2022/06/26 03:59:16;;;;;;;;;;;;;;;20.53;60.70;100339.91;4986894;28;8235;-76
2022/06/26 04:01:42;;;;;;;;;;;;;;;20.54;61.11;100345.13;4965972;28;7178;-77
2022/06/26 04:04:08;;;;;;;;;;;;;;;20.54;60.56;100352.06;5002511;28;6845;-77
2022/06/26 04:06:33;;;;;;;;;;;;;;;20.52;60.59;100354.66;4956907;28;6962;-76
2022/06/26 04:08:59;;;;;;;;;;;;;;;20.51;60.35;100363.31;4966441;28;7305;-76
2022/06/26 04:11:24;;;;;;;;;;;;;;;20.49;60.41;100359.84;5001838;28;8710;-76
2022/06/26 04:13:50;;;;;;;;;;;;;;;20.49;60.79;100367.63;4993268;28;6969;-76
2022/06/26 04:16:19;;;;;;;;;;;;;;;20.51;60.35;100367.66;5001980;28;7129;-76
2022/06/26 04:18:45;;;;;;;;;;;;;;;20.54;60.56;100367.66;4977907;28;6974;-76
2022/06/26 04:21:11;;;;;;;;;;;;;;;20.60;61.04;100367.72;4963738;28;6776;-77
2022/06/26 04:23:37;;;;;;;;;;;;;;;20.72;61.59;100361.72;4961129;28;8561;-76
2022/06/26 04:26:04;;;;;;;;;;;;;;;20.83;61.91;100359.19;4975934;28;7177;-78
2022/06/26 04:28:31;;;;;;;;;;;;;;;20.95;61.05;100369.66;4968064;28;7254;-78
2022/06/26 04:30:57;;;;;;;;;;;;;;;21.06;61.51;100361.91;4977283;28;6996;-78
2022/06/26 04:33:22;;;;;;;;;;;;;;;21.27;62.28;100372.41;4987903;28;7048;-78
2022/06/26 04:35:48;;;;;;;;;;;;;;;21.51;62.49;100369.84;4979713;28;8387;-78
2022/06/26 04:38:13;;;;;;;;;;;;;;;21.82;62.08;100368.19;4953986;28;7956;-78
2022/06/26 04:40:39;;;;;;;;;;;;;;;22.11;62.72;100367.31;5000125;28;6958;-77
2022/06/26 04:43:05;;;;;;;;;;;;;;;22.50;63.09;100362.13;4965510;28;7206;-78
2022/06/26 04:45:30;;;;;;;;;;;;;;;22.92;61.69;100375.91;5001039;28;6927;-78
2022/06/26 04:47:56;;;;;;;;;;;;;;;23.31;60.91;100370.56;4968804;28;7169;-78
2022/06/26 04:50:22;;;;;;;;;;;;;;;23.62;59.64;100372.16;4966282;28;7352;-78
2022/06/26 04:52:49;;;;;;;;;;;;;;;23.90;59.25;100362.34;4985827;28;7158;-78
2022/06/26 04:55:15;;;;;;;;;;;;;;;24.21;58.54;100356.84;4959491;28;7138;-78
2022/06/26 04:57:42;;;;;;;;;;;;;;;24.49;57.23;100359.22;4964044;28;7181;-78
2022/06/26 05:00:13;;;;;;;;;;;;;;;24.71;56.74;100363.34;4983417;28;7350;-77
2022/06/26 05:02:38;;;;;;;;;;;;;;;24.92;56.05;100370.16;5003139;28;13064;-78
2022/06/26 05:05:05;;;;;;;;;;;;;;;25.12;55.48;100376.91;4997908;28;7162;-78
2022/06/26 05:07:32;;;;;;;;;;;;;;;25.35;55.13;100373.94;4981541;28;7153;-77
2022/06/26 05:09:58;;;;;;;;;;;;;;;25.58;54.02;100360.53;4999379;28;7256;-78
2022/06/26 05:12:24;;;;;;;;;;;;;;;25.67;52.42;100374.41;4980544;28;6951;-77
2022/06/26 05:14:50;;;;;;;;;;;;;;;25.57;51.55;100374.53;4994576;28;7189;-78
2022/06/26 05:17:15;;;;;;;;;;;;;;;25.38;50.98;100385.25;4962346;28;8413;-77
2022/06/26 05:19:41;;;;;;;;;;;;;;;25.17;50.25;100382.94;4981665;28;8326;-78
2022/06/26 05:22:07;;;;;;;;;;;;;;;24.90;50.01;100393.75;4992041;28;8482;-77
2022/06/26 05:24:33;;;;;;;;;;;;;;;24.63;50.41;100389.66;4982384;28;7336;-77
2022/06/26 05:26:59;;;;;;;;;;;;;;;24.40;50.60;100398.59;4983929;28;8140;-76
2022/06/26 05:29:25;;;;;;;;;;;;;;;24.21;50.77;100411.84;4965123;28;8079;-76
2022/06/26 05:31:51;;;;;;;;;;;;;;;24.08;51.54;100408.44;4966277;28;8030;-75
2022/06/26 05:34:17;;;;;;;;;;;;;;;24.07;52.91;100405.88;4967943;28;7007;-76
2022/06/26 05:36:43;;;;;;;;;;;;;;;24.19;54.12;100408.38;4947298;28;6991;-76
2022/06/26 05:39:09;;;;;;;;;;;;;;;24.36;52.85;100404.75;4960110;28;7933;-75
2022/06/26 05:41:35;;;;;;;;;;;;;;;24.49;52.74;100400.28;4962916;28;7087;-76
2022/06/26 05:44:01;;;;;;;;;;;;;;;24.65;52.76;100414.94;4964412;28;8097;-75
2022/06/26 05:46:27;;;;;;;;;;;;;;;24.72;51.92;100415.72;4988444;28;6852;-75
2022/06/26 05:48:53;;;;;;;;;;;;;;;24.88;52.70;100418.22;4987445;28;6816;-75
2022/06/26 05:51:18;;;;;;;;;;;;;;;25.13;52.46;100412.72;4980210;28;7963;-75
2022/06/26 05:53:44;;;;;;;;;;;;;;;25.48;53.25;100416.59;4989369;28;9167;-75
2022/06/26 05:56:10;;;;;;;;;;;;;;;25.83;52.52;100417.91;4979429;28;6988;-75
2022/06/26 05:58:35;;;;;;;;;;;;;;;26.17;51.78;100421.75;4955658;28;7233;-76
2022/06/26 06:01:01;;;;;;;;;;;;;;;26.39;50.28;100427.53;4965529;28;8473;-77
2022/06/26 06:03:27;;;;;;;;;;;;;;;26.51;48.95;100433.47;4965243;28;6970;-76
2022/06/26 06:05:52;;;;;;;;;;;;;;;26.51;47.91;100433.47;4996937;28;6856;-76
2022/06/26 06:08:18;;;;;;;;;;;;;;;26.38;47.02;100430.19;4988428;28;7037;-76
2022/06/26 06:10:44;;;;;;;;;;;;;;;26.18;47.10;100432.22;4946359;28;8390;-77
2022/06/26 06:13:09;;;;;;;;;;;;;;;25.98;47.09;100436.91;4988865;28;6950;-77
2022/06/26 06:15:35;;;;;;;;;;;;;;;25.77;47.05;100434.59;4964432;28;6784;-76
2022/06/26 06:18:00;;;;;;;;;;;;;;;25.58;47.57;100441.00;4976191;28;6975;-76
2022/06/26 06:20:27;;;;;;;;;;;;;;;25.43;47.63;100439.44;4967593;28;6944;-76
2022/06/26 06:23:00;;;;;;;;;;;;;;;25.27;47.40;100441.38;4967626;28;7229;-75
2022/06/26 06:25:26;;;;;;;;;;;;;;;25.15;47.11;100460.75;4970060;28;7058;-77
2022/06/26 06:27:52;;;;;;;;;;;;;;;25.06;47.91;100462.59;4998923;28;6919;-76
2022/06/26 06:30:19;;;;;;;;;;;;;;;25.03;47.87;100465.25;4988900;28;7093;-75
2022/06/26 06:32:45;;;;;;;;;;;;;;;25.01;47.77;100469.63;4999547;28;7055;-75
2022/06/26 06:35:13;;;;;;;;;;;;;;;25.04;48.14;100463.47;4994394;28;6804;-76
2022/06/26 06:37:41;;;;;;;;;;;;;;;25.06;48.29;100452.09;4979094;28;6995;-76
2022/06/26 06:40:08;;;;;;;;;;;;;;;25.09;47.67;100449.44;4959237;28;7001;-75
2022/06/26 06:42:34;;;;;;;;;;;;;;;25.07;47.56;100453.84;4963601;28;6965;-75
2022/06/26 06:45:00;;;;;;;;;;;;;;;25.01;47.84;100456.50;4992845;28;7063;-76
2022/06/26 06:47:26;;;;;;;;;;;;;;;24.96;47.69;100453.09;4984789;28;6800;-76
2022/06/26 06:49:51;;;;;;;;;;;;;;;24.93;48.16;100453.97;4977605;28;7265;-75
2022/06/26 06:52:17;;;;;;;;;;;;;;;24.87;47.70;100456.69;4984277;28;6772;-76
2022/06/26 06:54:43;;;;;;;;;;;;;;;24.79;47.77;100448.88;4961190;28;6924;-75
2022/06/26 06:57:08;;;;;;;;;;;;;;;24.79;47.95;100455.91;4964121;28;6792;-75
2022/06/26 06:59:34;;;;;;;;;;;;;;;24.78;47.99;100462.03;4961619;28;7201;-75
2022/06/26 07:02:01;;;;;;;;;;;;;;;24.79;47.83;100479.47;4980907;28;7288;-75
2022/06/26 07:04:27;;;;;;;;;;;;;;;24.85;47.71;100491.66;4989873;28;6791;-75
2022/06/26 07:06:53;;;;;;;;;;;;;;;24.87;47.68;100503.88;4992018;28;8576;-75
2022/06/26 07:09:19;;;;;;;;;;;;;;;24.89;47.95;100502.09;4984348;28;7148;-75
2022/06/26 07:11:45;;;;;;;;;;;;;;;24.93;47.93;100506.41;4983796;28;7033;-75
2022/06/26 07:14:11;;;;;;;;;;;;;;;24.98;47.55;100503.75;4969768;28;7451;-75
2022/06/26 07:16:36;;;;;;;;;;;;;;;25.05;47.74;100508.03;4954546;28;8444;-75
2022/06/26 07:19:04;;;;;;;;;;;;;;;25.13;47.12;100507.94;4964720;28;7404;-75
2022/06/26 07:21:30;;;;;;;;;;;;;;;25.18;47.10;100523.63;4985383;28;7238;-76
2022/06/26 07:23:56;;;;;;;;;;;;;;;25.21;47.01;100526.25;5001816;28;6799;-77
2022/06/26 07:26:22;;;;;;;;;;;;;;;25.20;46.31;100533.22;4966964;28;6788;-76
2022/06/26 07:28:47;;;;;;;;;;;;;;;25.19;46.01;100530.63;5001650;28;7196;-76
2022/06/26 07:31:13;;;;;;;;;;;;;;;25.20;46.39;100537.59;4994865;28;7221;-75
2022/06/26 07:36:24;;;;;;;;;;;;;;;25.27;46.46;100548.91;4969522;28;6819;-76
2022/06/26 07:38:49;;;;;;;;;;;;;;;25.27;46.45;100559.41;4978914;28;8540;-75
2022/06/26 07:41:15;;;;;;;;;;;;;;;25.28;45.82;100561.13;4987090;28;6936;-75
2022/06/26 07:43:41;;;;;;;;;;;;;;;25.24;45.66;100568.16;4992884;28;7218;-76
2022/06/26 07:46:07;;;;;;;;;;;;;;;25.20;45.90;100569.06;5002366;28;6780;-77
2022/06/26 07:48:33;;;;;;;;;;;;;;;25.19;46.02;100569.94;4972597;28;6942;-75
2022/06/26 07:51:01;;;;;;;;;;;;;;;25.20;46.66;100566.44;4999343;28;6788;-76
2022/06/26 07:53:27;;;;;;;;;;;;;;;25.26;46.07;100569.00;4969164;28;6772;-75
2022/06/26 07:55:54;;;;;;;;;;;;;;;25.28;45.31;100575.09;4952236;28;7076;-75
2022/06/26 07:58:20;;;;;;;;;;;;;;;25.24;44.99;100570.78;5005370;28;7247;-75
2022/06/26 08:00:46;;;;;;;;;;;;;;;25.16;44.95;100572.63;4971746;28;6859;-75
2022/06/26 08:03:15;;;;;;;;;;;;;;;25.05;45.41;100557.84;4989184;28;6768;-76
2022/06/26 08:05:42;;;;;;;;;;;;;;;24.95;45.19;100548.34;4966938;28;7981;-75
2022/06/26 08:08:08;;;;;;;;;;;;;;;24.86;45.56;100546.66;4968811;28;7185;-76
2022/06/26 08:10:35;;;;;;;;;;;;;;;24.78;45.33;100557.22;4985711;28;8298;-75
2022/06/26 08:13:01;;;;;;;;;;;;;;;24.74;46.18;100555.50;5003163;28;6800;-75
2022/06/26 08:15:27;;;;;;;;;;;;;;;24.76;46.37;100558.97;5004439;28;7151;-75
2022/06/26 08:17:52;;;;;;;;;;;;;;;24.78;46.00;100549.34;4968495;28;7036;-75
2022/06/26 08:20:18;;;;;;;;;;;;;;;24.78;46.00;100536.25;5002173;28;6832;-75
2022/06/26 08:22:44;;;;;;;;;;;;;;;24.79;46.34;100531.91;4963557;28;7062;-75
2022/06/26 08:25:10;;;;;;;;;;;;;;;24.81;45.88;100536.22;5002325;28;6956;-75
2022/06/26 08:27:35;;;;;;;;;;;;;;;24.81;45.24;100545.84;4961084;28;8428;-77
2022/06/26 08:30:02;;;;;;;;;;;;;;;24.85;46.13;100546.69;4978108;28;6941;-76
2022/06/26 08:32:27;;;;;;;;;;;;;;;24.93;45.30;100544.88;4951825;28;6991;-76
2022/06/26 08:34:53;;;;;;;;;;;;;;;25.01;45.95;100553.50;4987293;28;7061;-77
2022/06/26 08:37:19;;;;;;;;;;;;;;;25.10;45.78;100563.91;4968316;28;7205;-76
2022/06/26 08:39:44;;;;;;;;;;;;;;;25.21;45.30;100560.34;4969786;28;6978;-76
2022/06/26 08:42:10;;;;;;;;;;;;;;;25.27;45.41;100555.00;4986379;28;7737;-76
2022/06/26 08:44:43;;;;;;;;;;;;;;;25.32;45.05;100550.59;4988985;28;7238;-76
2022/06/26 08:47:11;;;;;;;;;;;;;;;25.42;45.11;100547.88;4969322;28;6864;-76
2022/06/26 08:49:37;;;;;;;;;;;;;;;25.48;44.66;100553.91;4966194;28;7281;-76
2022/06/26 08:52:04;;;;;;;;;;;;;;;25.56;44.49;100551.22;4972344;28;6840;-75
2022/06/26 08:54:31;;;;;;;;;;;;;;;25.64;44.43;100554.63;4950198;28;7008;-76
2022/06/26 08:56:58;;;;;;;;;;;;;;;25.75;44.19;100557.13;4967883;28;6800;-75
2022/06/26 08:59:25;;;;;;;;;;;;;;;25.86;43.99;100570.09;4966156;28;8214;-76
2022/06/26 09:01:50;;;;;;;;;;;;;;;25.96;44.18;100568.22;4971240;28;7850;-76
2022/06/26 09:04:16;;;;;;;;;;;;;;;26.04;43.98;100569.00;4998640;28;6767;-76
2022/06/26 09:06:44;;;;;;;;;;;;;;;26.08;43.74;100575.06;4981524;28;7169;-76
2022/06/26 09:09:27;;;;;;;;;;;;;;;26.08;43.23;100575.06;4977578;28;6788;-76
2022/06/26 09:12:01;;;;;;;;;;;;;;;26.02;43.33;100576.00;4959705;28;6814;-76
2022/06/26 09:14:30;;;;;;;;;;;;;;;25.95;42.97;100577.00;4986023;28;6800;-75
2022/06/26 09:16:57;;;;;;;;;;;;;;;25.88;43.00;100575.34;4999308;28;6954;-75
2022/06/26 09:19:33;;;;;;;;;;;;;;;25.77;42.82;100570.22;4978257;28;7003;-76
2022/06/26 09:22:14;;;;;;;;;;;;;;;25.69;43.18;100574.69;4969352;28;6816;-75
2022/06/26 09:24:51;;;;;;;;;;;;;;;25.62;43.34;100568.66;4964345;28;7288;-76
2022/06/26 09:27:16;;;;;;;;;;;;;;;25.59;43.18;100577.44;4967387;28;7841;-75
2022/06/26 09:29:50;;;;;;;;;;;;;;;25.56;42.83;100582.72;4986775;28;6796;-76
2022/06/26 09:32:17;;;;;;;;;;;;;;;25.55;42.93;100574.88;4962207;28;7396;-75
2022/06/26 09:34:50;;;;;;;;;;;;;;;25.55;43.55;100594.09;4983537;28;6804;-76
2022/06/26 09:37:19;;;;;;;;;;;;;;;25.55;43.17;100588.84;4977362;28;7013;-76
2022/06/26 09:39:46;;;;;;;;;;;;;;;25.51;42.95;100595.03;4992344;28;8957;-75
2022/06/26 09:42:16;;;;;;;;;;;;;;;25.42;43.22;100602.97;4984731;28;7270;-76
2022/06/26 09:44:47;;;;;;;;;;;;;;;25.27;43.76;100591.72;4965281;28;7009;-75
2022/06/26 09:47:31;;;;;;;;;;;;;;;25.12;43.96;100582.25;4982596;28;7008;-75
2022/06/26 09:50:01;;;;;;;;;;;;;;;25.03;44.34;100595.44;4984620;28;6896;-75
2022/06/26 09:52:30;;;;;;;;;;;;;;;24.96;44.41;100605.13;4989043;28;7157;-75
2022/06/26 09:54:58;;;;;;;;;;;;;;;24.91;44.80;100604.28;4987015;28;6796;-76
2022/06/26 09:57:28;;;;;;;;;;;;;;;24.87;44.65;100607.81;4949508;28;7023;-75
2022/06/26 09:59:56;;;;;;;;;;;;;;;24.81;44.91;100617.47;4948964;28;7091;-81
2022/06/26 10:08:04;;;;;;;;;;;;;;;24.50;45.52;100615.03;4963570;28;6808;-76
2022/06/26 10:10:32;;;;;;;;;;;;;;;24.46;45.98;100620.31;4965004;28;7210;-76
2022/06/26 10:13:07;;;;;;;;;;;;;;;24.44;45.87;100620.34;4966966;28;7280;-76
2022/06/26 10:16:21;;;;;;;;;;;;;;;24.42;46.39;100624.69;4968710;28;6977;-76
2022/06/26 10:19:45;;;;;;;;;;;;;;;24.39;46.36;100620.34;4966197;28;6820;-76
2022/06/26 10:22:13;;;;;;;;;;;;;;;24.32;46.70;100636.97;4975307;28;7177;-76
2022/06/26 10:25:03;;;;;;;;;;;;;;;24.29;46.64;100636.13;4961870;28;8456;-76
2022/06/26 10:27:30;;;;;;;;;;;;;;;24.18;47.10;100629.19;4976658;28;6988;-76
2022/06/26 10:30:15;;;;;;;;;;;;;;;24.08;47.33;100635.34;5001277;28;6949;-76
2022/06/26 10:32:43;;;;;;;;;;;;;;;24.00;47.50;100638.84;4997314;28;11146;-76
2022/06/26 10:35:11;;;;;;;;;;;;;;;24.00;47.78;100632.75;4953888;28;8058;-76
2022/06/26 10:37:48;;;;;;;;;;;;;;;23.97;48.36;100631.00;4968404;28;7465;-76
2022/06/26 10:43:16;;;;;;;;;;;;;;;23.88;49.36;100654.59;4964415;28;7318;-77
2022/06/26 10:45:42;;;;;;;;;;;;;;;23.86;50.05;100644.13;4985077;28;8060;-77
2022/06/26 10:48:20;;;;;;;;;;;;;;;23.92;50.39;100637.13;4948915;28;8800;-77
2022/06/26 10:51:03;;;;;;;;;;;;;;;24.02;51.16;100637.94;4948956;28;7097;-78
2022/06/26 10:53:36;;;;;;;;;;;;;;;24.12;50.66;100639.69;4999931;28;7238;-77
2022/06/26 10:56:07;;;;;;;;;;;;;;;24.26;51.08;100626.53;4971964;28;6984;-77
2022/06/26 10:58:42;;;;;;;;;;;;;;;24.39;51.31;100633.47;5004749;28;7248;-77
2022/06/26 11:01:11;;;;;;;;;;;;;;;24.55;50.65;100621.13;4970018;28;6911;-77
2022/06/26 11:03:39;;;;;;;;;;;;;;;24.72;50.19;100620.13;4995107;28;7039;-77
2022/06/26 11:06:09;;;;;;;;;;;;;;;24.89;49.73;100627.03;4964950;28;6800;-77
2022/06/26 11:08:54;;;;;;;;;;;;;;;25.06;48.83;100621.63;4951282;28;7213;-77
2022/06/26 11:11:31;;;;;;;;;;;;;;;25.20;48.13;100618.88;4985954;28;8324;-77
2022/06/26 11:14:06;;;;;;;;;;;;;;;25.28;48.27;100614.44;4972208;28;7279;-77
2022/06/26 11:16:43;;;;;;;;;;;;;;;25.35;48.04;100608.25;4990168;28;7112;-77
2022/06/26 11:19:26;;;;;;;;;;;;;;;25.43;47.56;100608.16;4987072;28;7063;-77
2022/06/26 11:22:11;;;;;;;;;;;;;;;25.51;47.21;100605.53;4976784;28;7087;-77
2022/06/26 11:24:52;;;;;;;;;;;;;;;25.56;47.12;100602.84;4968536;28;7023;-77
2022/06/26 11:27:25;;;;;;;;;;;;;;;25.63;46.89;100597.50;4980207;28;6996;-77
2022/06/26 11:29:55;;;;;;;;;;;;;;;25.73;46.03;100582.50;4967402;28;6824;-76
2022/06/26 11:32:22;;;;;;;;;;;;;;;25.87;46.38;100582.31;4947733;28;8721;-77
2022/06/26 11:34:53;;;;;;;;;;;;;;;25.99;45.99;100581.31;4969915;28;6792;-76
2022/06/26 11:37:35;;;;;;;;;;;;;;;26.10;45.33;100575.91;5000035;28;6990;-77
2022/06/26 11:40:14;;;;;;;;;;;;;;;26.22;45.14;100579.28;4970154;28;7281;-76
2022/06/26 11:42:40;;;;;;;;;;;;;;;26.29;44.99;100579.16;4982956;28;8479;-77
2022/06/26 11:45:07;;;;;;;;;;;;;;;26.45;44.93;100578.94;4954781;28;7013;-77
2022/06/26 11:47:34;;;;;;;;;;;;;;;26.67;43.99;100589.13;4970498;28;6780;-77
2022/06/26 11:50:00;;;;;;;;;;;;;;;26.89;43.66;100580.00;4987228;28;7165;-77
2022/06/26 11:52:26;;;;;;;;;;;;;;;27.11;43.21;100589.28;4965618;28;7293;-77
2022/06/26 11:55:02;;;;;;;;;;;;;;;27.36;43.12;100594.97;4988519;28;6836;-77
2022/06/26 11:57:28;;;;;;;;;;;;;;;27.58;42.19;100600.72;5004113;28;6806;-77
2022/06/26 11:59:54;;;;;;;;;;;;;;;27.67;41.54;100598.78;5002806;28;6999;-77
2022/06/26 12:02:25;;;;;;;;;;;;;;;27.67;40.95;100609.31;4999778;28;7285;-76
2022/06/26 12:05:02;;;;;;;;;;;;;;;27.62;41.26;100611.16;4950819;28;7802;-77
2022/06/26 12:07:44;;;;;;;;;;;;;;;27.55;40.66;100611.31;4968648;28;6796;-77
2022/06/26 12:10:11;;;;;;;;;;;;;;;27.48;40.74;100614.06;4982304;28;7319;-77
2022/06/26 12:12:37;;;;;;;;;;;;;;;27.35;40.14;100603.75;4971747;28;8550;-77
2022/06/26 12:15:03;;;;;;;;;;;;;;;27.26;40.68;100604.81;4984318;28;6960;-77
2022/06/26 12:17:30;;;;;;;;;;;;;;;27.25;41.39;100596.94;4965609;28;6971;-77
2022/06/26 12:20:07;;;;;;;;;;;;;;;27.33;41.47;100594.16;4998984;28;7000;-77
2022/06/26 12:22:35;;;;;;;;;;;;;;;27.42;42.10;100600.13;4985897;28;7282;-76
2022/06/26 12:25:03;;;;;;;;;;;;;;;27.49;42.28;100595.59;4975222;28;6876;-78
2022/06/26 12:27:36;;;;;;;;;;;;;;;27.51;42.44;100588.53;4998719;28;8442;-77
2022/06/26 12:30:15;;;;;;;;;;;;;;;27.43;42.28;100583.44;4966179;28;7380;-76
2022/06/26 12:32:41;;;;;;;;;;;;;;;27.41;42.31;100581.72;4985959;28;11558;-76
2022/06/26 12:35:07;;;;;;;;;;;;;;;27.47;42.15;100572.81;4971032;28;7435;-76
2022/06/26 12:37:33;;;;;;;;;;;;;;;27.58;41.73;100565.66;4965411;28;6840;-76
2022/06/26 12:39:58;;;;;;;;;;;;;;;27.72;41.28;100565.34;4975280;28;8535;-76
2022/06/26 12:42:24;;;;;;;;;;;;;;;27.89;40.62;100567.63;5001360;28;7931;-77
2022/06/26 12:44:50;;;;;;;;;;;;;;;28.11;40.74;100570.66;5001880;28;7008;-77
2022/06/26 12:47:15;;;;;;;;;;;;;;;28.35;40.31;100559.63;4969095;28;7105;-76
2022/06/26 12:49:41;;;;;;;;;;;;;;;28.59;40.22;100562.56;4945892;28;8670;-76
2022/06/26 12:52:07;;;;;;;;;;;;;;;28.84;40.57;100562.81;4963684;28;7497;-77
2022/06/26 12:54:33;;;;;;;;;;;;;;;29.09;40.10;100556.91;4972554;28;6873;-77
2022/06/26 12:56:58;;;;;;;;;;;;;;;29.31;39.74;100551.03;4995231;28;6947;-76
2022/06/26 12:59:24;;;;;;;;;;;;;;;29.43;38.96;100555.13;4967443;28;6787;-77
2022/06/26 13:01:50;;;;;;;;;;;;;;;29.52;38.62;100555.72;4999348;28;6783;-76
2022/06/26 13:04:16;;;;;;;;;;;;;;;29.61;38.33;100559.00;4966118;28;7494;-78